地図

経路データ

SID SEASON NUMBER BASIN SUBBASIN NAME ISO_TIME NATURE LAT LON WMO_WIND WMO_PRES WMO_AGENCY TRACK_TYPE DIST2LAND LANDFALL IFLAG USA_AGENCY USA_ATCF_ID USA_LAT USA_LON USA_RECORD USA_STATUS USA_WIND USA_PRES USA_SSHS USA_R34_NE USA_R34_SE USA_R34_SW USA_R34_NW USA_R50_NE USA_R50_SE USA_R50_SW USA_R50_NW USA_R64_NE USA_R64_SE USA_R64_SW USA_R64_NW USA_POCI USA_ROCI USA_RMW USA_EYE TOKYO_LAT TOKYO_LON TOKYO_GRADE TOKYO_WIND TOKYO_PRES TOKYO_R50_DIR TOKYO_R50_LONG TOKYO_R50_SHORT TOKYO_R30_DIR TOKYO_R30_LONG TOKYO_R30_SHORT TOKYO_LAND CMA_LAT CMA_LON CMA_CAT CMA_WIND CMA_PRES HKO_LAT HKO_LON HKO_CAT HKO_WIND HKO_PRES NEWDELHI_LAT NEWDELHI_LON NEWDELHI_GRADE NEWDELHI_WIND NEWDELHI_PRES NEWDELHI_CI NEWDELHI_DP NEWDELHI_POCI REUNION_LAT REUNION_LON REUNION_TYPE REUNION_WIND REUNION_PRES REUNION_TNUM REUNION_CI REUNION_RMW REUNION_R34_NE REUNION_R34_SE REUNION_R34_SW REUNION_R34_NW REUNION_R50_NE REUNION_R50_SE REUNION_R50_SW REUNION_R50_NW REUNION_R64_NE REUNION_R64_SE REUNION_R64_SW REUNION_R64_NW BOM_LAT BOM_LON BOM_TYPE BOM_WIND BOM_PRES BOM_TNUM BOM_CI BOM_RMW BOM_R34_NE BOM_R34_SE BOM_R34_SW BOM_R34_NW BOM_R50_NE BOM_R50_SE BOM_R50_SW BOM_R50_NW BOM_R64_NE BOM_R64_SE BOM_R64_SW BOM_R64_NW BOM_ROCI BOM_POCI BOM_EYE BOM_POS_METHOD BOM_PRES_METHOD NADI_LAT NADI_LON NADI_CAT NADI_WIND NADI_PRES WELLINGTON_LAT WELLINGTON_LON WELLINGTON_WIND WELLINGTON_PRES DS824_LAT DS824_LON DS824_STAGE DS824_WIND DS824_PRES TD9636_LAT TD9636_LON TD9636_STAGE TD9636_WIND TD9636_PRES TD9635_LAT TD9635_LON TD9635_WIND TD9635_PRES TD9635_ROCI NEUMANN_LAT NEUMANN_LON NEUMANN_CLASS NEUMANN_WIND NEUMANN_PRES MLC_LAT MLC_LON MLC_CLASS MLC_WIND MLC_PRES USA_GUST BOM_GUST BOM_GUST_PER REUNION_GUST REUNION_GUST_PER USA_SEAHGT USA_SEARAD_NE USA_SEARAD_SE USA_SEARAD_SW USA_SEARAD_NW STORM_SPEED STORM_DIR
1927233N17090 1927 42 NI BB NOT_NAMED 1927-08-21 00:00:00 TS 17.3000 90.3000 main 406 406 _________O____ -1 17.3000 90.3000 TC 30 0 0
1927233N17090 1927 42 NI BB NOT_NAMED 1927-08-21 03:00:00 TS 17.3000 90.3000 main 406 406 _________PO___ -1 17.3000 90.3000 TC 30 17.3000 90.3000 1 0 0
1927233N17090 1927 42 NI BB NOT_NAMED 1927-08-21 06:00:00 TS 17.3019 90.2919 main 406 406 _________OP___ -1 17.3000 90.3000 TC 30 17.3048 90.2797 1 0 0
1927233N17090 1927 42 NI BB NOT_NAMED 1927-08-21 09:00:00 TS 17.3033 90.2861 main 406 406 _________PP___ -1 17.3000 90.3000 TC 30 17.3076 90.2676 1 0 0
1927233N17090 1927 42 NI BB NOT_NAMED 1927-08-21 12:00:00 TS 17.3033 90.2858 main 406 406 _________OP___ -1 17.3000 90.3000 TC 30 17.3067 90.2716 1 0 0
1927233N17090 1927 42 NI BB NOT_NAMED 1927-08-21 15:00:00 TS 17.3000 90.3000 main 406 406 _________PO___ -1 17.3000 90.3000 TC 30 17.3000 90.3000 1 0 104
1927233N17090 1927 42 NI BB NOT_NAMED 1927-08-21 18:00:00 TS 17.2938 90.3264 main 406 397 _________OP___ -1 17.3000 90.3000 TC 30 17.2876 90.3527 1 1 103
1927233N17090 1927 42 NI BB NOT_NAMED 1927-08-21 21:00:00 TS 17.2848 90.3674 main 397 397 _________PP___ -1 17.2924 90.3375 TC 30 17.2772 90.3973 1 0 0
1927233N17090 1927 42 NI BB NOT_NAMED 1927-08-22 00:00:00 TS 17.2891 90.3466 main 406 406 _________OP___ -1 17.3000 90.3000 TC 30 17.2781 90.3933 1 2 282
1927233N17090 1927 42 NI BB NOT_NAMED 1927-08-22 03:00:00 TS 17.3175 90.2050 main 415 415 _________PO___ -1 17.3350 90.1100 TC 30 17.3000 90.3000 1 4 282
1927233N17090 1927 42 NI BB NOT_NAMED 1927-08-22 06:00:00 TS 17.3769 89.9262 main 437 437 _________OP___ -1 17.4000 89.8000 TC 30 17.3539 90.0524 1 6 283
1927233N17090 1927 42 NI BB NOT_NAMED 1927-08-22 09:00:00 TS 17.4642 89.5589 main 437 398 _________PP___ -1 17.5002 89.4001 TC 30 17.4282 89.7178 1 7 284
1927233N17090 1927 42 NI BB NOT_NAMED 1927-08-22 12:00:00 TS 17.5566 89.1746 main 398 375 _________OP___ -1 17.6000 89.0000 TC 30 17.5133 89.3492 1 7 284
1927233N17090 1927 42 NI BB NOT_NAMED 1927-08-22 15:00:00 TS 17.6249 88.8600 main 375 346 _________PO___ -1 17.6499 88.7199 TC 30 17.6000 89.0000 1 5 284
1927233N17090 1927 42 NI BB NOT_NAMED 1927-08-22 18:00:00 TS 17.6873 88.6292 main 346 323 _________OP___ -1 17.7000 88.5000 TC 30 17.6746 88.7583 1 4 289
1927233N17090 1927 42 NI BB NOT_NAMED 1927-08-22 21:00:00 TS 17.7709 88.4249 main 323 301 _________PP___ -1 17.7924 88.3075 TC 30 17.7495 88.5423 1 4 294
1927233N17090 1927 42 NI BB NOT_NAMED 1927-08-23 00:00:00 TS 17.8623 88.2151 main 301 288 _________OP___ -1 17.9000 88.1000 TC 30 17.8246 88.3302 1 5 292
1927233N17090 1927 42 NI BB NOT_NAMED 1927-08-23 03:00:00 TS 17.9538 87.9575 main 279 262 _________PO___ -1 18.0075 87.8150 TC 30 17.9000 88.1000 1 5 288
1927233N17090 1927 42 NI BB NOT_NAMED 1927-08-23 06:00:00 TS 18.0313 87.6667 main 262 237 _________OP___ -1 18.1000 87.5000 TC 30 17.9627 87.8335 1 6 283
1927233N17090 1927 42 NI BB NOT_NAMED 1927-08-23 09:00:00 TS 18.0848 87.3797 main 237 224 _________PP___ -1 18.1424 87.2148 TC 30 18.0273 87.5446 1 6 282
1927233N17090 1927 42 NI BB NOT_NAMED 1927-08-23 12:00:00 TS 18.1516 87.0667 main 214 189 _________OP___ -1 18.2000 86.9000 TC 30 18.1032 87.2334 1 7 286
1927233N17090 1927 42 NI BB NOT_NAMED 1927-08-23 15:00:00 TS 18.2675 86.7038 main 189 164 _________PO___ -1 18.3350 86.5076 TC 30 18.2000 86.9000 1 8 290
1927233N17090 1927 42 NI BB NOT_NAMED 1927-08-23 18:00:00 TS 18.4061 86.3232 main 164 138 _________OP___ -1 18.5000 86.1000 TC 30 18.3122 86.5464 1 8 291
1927233N17090 1927 42 NI BB NOT_NAMED 1927-08-23 21:00:00 TS 18.5412 85.9610 main 138 98 _________PP___ -1 18.6348 85.7498 TC 30 18.4475 86.1722 1 8 293
1927233N17090 1927 42 NI BB NOT_NAMED 1927-08-24 00:00:00 TS 18.7045 85.5934 main 98 53 _________OP___ -1 18.8000 85.4000 TC 30 18.6090 85.7869 1 8 298
1927233N17090 1927 42 NI BB NOT_NAMED 1927-08-24 03:00:00 TS 18.9175 85.2000 main 53 10 _________PO___ -1 19.0350 85.0000 TC 30 18.8000 85.4000 1 9 301
1927233N17090 1927 42 NI BB NOT_NAMED 1927-08-24 06:00:00 TS 19.1586 84.8024 main 0 0 _________OP___ -1 19.3000 84.6000 TC 30 19.0172 85.0049 1 9 304
1927233N17090 1927 42 NI BB NOT_NAMED 1927-08-24 09:00:00 TS 19.4063 84.4238 main 0 0 _________PP___ -1 19.5499 84.2349 TC 30 19.2626 84.6127 1 9 306
1927233N17090 1927 42 NI BB NOT_NAMED 1927-08-24 12:00:00 TS 19.6633 84.0696 main 0 0 _________OP___ -1 19.8000 83.9000 TC 30 19.5267 84.2392 1 8 309
1927233N17090 1927 42 NI BB NOT_NAMED 1927-08-24 15:00:00 TS 19.9212 83.7387 main 0 0 _________PO___ -1 20.0425 83.5774 TC 30 19.8000 83.9000 1 8 312
1927233N17090 1927 42 NI BB NOT_NAMED 1927-08-24 18:00:00 TS 20.1838 83.4448 main 0 0 _________OP___ -1 20.3000 83.3000 TC 30 20.0676 83.5895 1 8 317
1927233N17090 1927 42 NI BB NOT_NAMED 1927-08-24 21:00:00 TS 20.4711 83.1937 main 0 0 _________PP___ -1 20.6000 83.0700 TC 30 20.3423 83.3174 1 7 324
1927233N17090 1927 42 NI BB NOT_NAMED 1927-08-25 00:00:00 TS 20.7604 82.9933 main 0 0 _________OP___ -1 20.9000 82.9000 TC 30 20.6208 83.0865 1 6 329
1927233N17090 1927 42 NI BB NOT_NAMED 1927-08-25 03:00:00 TS 21.0250 82.8424 main 0 0 _________PO___ -1 21.1500 82.7849 TC 30 20.9000 82.9000 1 6 334
1927233N17090 1927 42 NI BB NOT_NAMED 1927-08-25 06:00:00 TS 21.2894 82.7222 main 0 0 _________OP___ -1 21.4000 82.7000 TC 30 21.1789 82.7444 1 6 339
1927233N17090 1927 42 NI BB NOT_NAMED 1927-08-25 09:00:00 TS 21.5786 82.6123 main 0 0 _________PP___ -1 21.7000 82.5925 TC 30 21.4573 82.6321 1 6 343
1927233N17090 1927 42 NI BB NOT_NAMED 1927-08-25 12:00:00 TS 21.8660 82.5269 main 0 0 _________OP___ -1 22.0000 82.5000 TC 30 21.7321 82.5539 1 6 346
1927233N17090 1927 42 NI BB NOT_NAMED 1927-08-25 15:00:00 TS 22.1287 82.4675 main 0 0 _________PO___ -1 22.2575 82.4350 TC 30 22.0000 82.5000 1 5 350
1927233N17090 1927 42 NI BB NOT_NAMED 1927-08-25 18:00:00 TS 22.3622 82.4354 main 0 0 _________OP___ -1 22.5000 82.4000 TC 30 22.2588 82.4620 1 5 355
1927233N17090 1927 42 NI BB NOT_NAMED 1927-08-25 21:00:00 TS 22.6050 82.4181 main 0 0 _________PP___ -1 22.7475 82.3925 TC 30 22.5101 82.4351 1 5 0
1927233N17090 1927 42 NI BB NOT_NAMED 1927-08-26 00:00:00 TS 22.8375 82.4105 main 0 0 _________OP___ -1 23.0000 82.4000 TC 30 22.7563 82.4157 1 4 357
1927233N17090 1927 42 NI BB NOT_NAMED 1927-08-26 03:00:00 NR 23.0000 82.4000 main 0 __________O___ -1 TC 23.0000 82.4000 1 3 355

IBTrACS Databaseについて

本データベースは、米国NOAAが公開する1842年以降の世界の熱帯低気圧のベストトラックデータアーカイブInternational Best Track Archive for Climate Stewardship (IBTrACS)を、ウェブで閲覧しやすい形式に変換したものです。

最終更新日:2021-10-27